Florence Regional Airport Florence US
ICAO: KFLO
IATA: FLO
Category: Medium
Scheduled Services: Yes

Elevation: 146 ft
TransAlt. 18000 ft.

Airport Communications:
APP DEP:118.6
ATIS:123.625
CTAF:125.1
GND/CLNC DEL:121.9
ANDERSON RDO:122.6
TWR:125.1
UNICOM:122.95

KFLO Zoom In..

If you have problems with the map follow the link
https://www.worldairports.se/pages/airport.php?
ICAO=KFLO

Runways:

(A) RW 01 length 6000 ft width 150 ft
---- / hdg 6

(B) RW 09 length 6502 ft width 150 ft
ILS 109.10 / hdg 89

(C) RW 19 length 6000 ft width 150 ft
---- / hdg 186

(D) RW 27 length 6502 ft width 150 ft
---- / hdg 269

Location; KFLO
Day. 07 / Time. 07.53 Zulu
* Altimeter: 30.19
* Temperature: 08° c. 46.4°f.
* Wind from: 010° Speed 03 kn.
Dewpoint: 07° c.
Visibility: 4 Statute Miles.
Clouds: Clear (automated report).
Conditions: Mist.

KFLO 070753Z AUTO 01003KT 4SM BR CLR 08/07 A3019 RMK AO2 SLP222 T00830072


Wind From 010°
Speed 03 kn.

 
 
jpsmedia worldairports.se 2019   terms of use